Time;durP1;ratioP1;P1;durP2;ratioP2;P2;SDS_P1;SDS_P2;PMS_P1;PMS_P2;Temp;Humidity;BMP_temperature;BMP_pressure;BME280_temperature;BME280_humidity;BME280_pressure;Samples;Min_cycle;Max_cycle;Signal;HPM_P1;HPM_P2
2022/08/19 00:01:35;;;;;;;9.43;7.00;;;;;;;;;;4968705;28;20217;-69
2022/08/19 00:04:03;;;;;;;7.40;6.57;;;;;;;;;;4969463;28;20285;-69
2022/08/19 00:06:30;;;;;;;7.95;6.45;;;;;;;;;;4969363;28;20210;-69
2022/08/19 00:08:58;;;;;;;8.63;6.95;;;;;;;;;;4969111;28;20248;-69
2022/08/19 00:11:27;;;;;;;8.52;7.07;;;;;;;;;;4969351;28;20206;-69
2022/08/19 00:13:56;;;;;;;8.10;6.55;;;;;;;;;;4969299;28;20292;-69
2022/08/19 00:16:24;;;;;;;7.53;6.70;;;;;;;;;;4968971;28;20249;-68
2022/08/19 00:18:51;;;;;;;7.68;6.78;;;;;;;;;;4967158;28;20230;-68
2022/08/19 00:21:18;;;;;;;8.65;7.30;;;;;;;;;;4967496;28;20222;-69
2022/08/19 00:23:45;;;;;;;11.10;7.38;;;;;;;;;;4968620;28;20601;-69
2022/08/19 00:26:12;;;;;;;7.22;6.50;;;;;;;;;;4968028;28;20206;-69
2022/08/19 00:28:39;;;;;;;8.20;7.38;;;;;;;;;;4968851;28;20214;-69
2022/08/19 00:31:08;;;;;;;7.20;6.50;;;;;;;;;;4964850;28;20214;-69
2022/08/19 00:33:36;;;;;;;7.80;6.90;;;;;;;;;;4968531;28;20240;-69
2022/08/19 00:36:04;;;;;;;9.95;6.82;;;;;;;;;;4969178;28;20597;-68
2022/08/19 00:38:32;;;;;;;7.90;6.47;;;;;;;;;;4963661;28;20213;-68
2022/08/19 00:40:59;;;;;;;10.02;7.03;;;;;;;;;;4966727;28;20297;-69
2022/08/19 00:43:27;;;;;;;7.45;6.63;;;;;;;;;;4972796;28;20210;-69
2022/08/19 00:45:54;;;;;;;7.82;6.63;;;;;;;;;;4972253;28;20280;-69
2022/08/19 00:48:23;;;;;;;8.27;7.25;;;;;;;;;;4970710;28;20206;-70
2022/08/19 00:50:52;;;;;;;7.70;6.90;;;;;;;;;;4973322;28;20245;-69
2022/08/19 00:53:21;;;;;;;7.97;7.18;;;;;;;;;;4972183;28;20679;-69
2022/08/19 00:55:49;;;;;;;8.27;6.75;;;;;;;;;;4970462;28;20240;-68
2022/08/19 00:58:19;;;;;;;7.30;6.60;;;;;;;;;;4972862;28;20285;-68
2022/08/19 01:00:47;;;;;;;10.15;6.88;;;;;;;;;;4973288;28;20218;-69
2022/08/19 01:03:16;;;;;;;8.77;6.95;;;;;;;;;;4973055;28;20210;-69
2022/08/19 01:05:45;;;;;;;10.57;7.05;;;;;;;;;;4973452;28;20631;-68
2022/08/19 01:08:13;;;;;;;10.18;7.28;;;;;;;;;;4972641;28;20719;-69
2022/08/19 01:10:42;;;;;;;9.07;7.15;;;;;;;;;;4972954;28;20677;-69
2022/08/19 01:13:09;;;;;;;9.32;7.25;;;;;;;;;;4971780;28;20677;-69
2022/08/19 01:15:41;;;;;;;9.00;7.55;;;;;;;;;;4965671;28;20230;-69
2022/08/19 01:18:09;;;;;;;8.25;7.40;;;;;;;;;;4972949;28;20237;-69
2022/08/19 01:20:36;;;;;;;8.52;7.70;;;;;;;;;;4972789;28;20269;-69
2022/08/19 01:23:05;;;;;;;10.90;7.50;;;;;;;;;;4972998;28;20215;-69
2022/08/19 01:25:33;;;;;;;9.38;7.13;;;;;;;;;;4972981;28;20585;-69
2022/08/19 01:28:00;;;;;;;11.65;7.80;;;;;;;;;;4972578;28;20214;-69
2022/08/19 01:30:30;;;;;;;9.90;8.10;;;;;;;;;;4972738;28;20215;-68
2022/08/19 01:32:58;;;;;;;9.30;7.38;;;;;;;;;;4971509;28;20214;-69
2022/08/19 01:35:26;;;;;;;9.30;7.43;;;;;;;;;;4971741;28;20379;-68
2022/08/19 01:37:55;;;;;;;15.00;8.27;;;;;;;;;;4972613;28;20206;-69
2022/08/19 01:40:24;;;;;;;9.88;8.13;;;;;;;;;;4975064;28;20207;-69
2022/08/19 01:42:52;;;;;;;7.70;6.90;;;;;;;;;;4972150;28;20399;-68
2022/08/19 01:45:19;;;;;;;9.60;7.60;;;;;;;;;;4971826;28;20286;-69
2022/08/19 01:47:46;;;;;;;8.60;7.32;;;;;;;;;;4970667;28;20219;-69
2022/08/19 01:50:14;;;;;;;9.80;7.45;;;;;;;;;;4968671;28;20268;-68
2022/08/19 01:52:41;;;;;;;8.15;7.32;;;;;;;;;;4970461;28;20261;-68
2022/08/19 01:55:10;;;;;;;11.77;7.35;;;;;;;;;;4963092;28;20230;-69
2022/08/19 01:57:40;;;;;;;8.27;7.13;;;;;;;;;;4966240;28;20210;-68
2022/08/19 02:00:09;;;;;;;7.97;6.85;;;;;;;;;;4965855;28;20214;-69
2022/08/19 02:02:37;;;;;;;9.15;7.07;;;;;;;;;;4968265;28;20202;-69
2022/08/19 02:05:04;;;;;;;9.20;7.32;;;;;;;;;;4966807;28;20203;-68
2022/08/19 02:07:32;;;;;;;8.32;6.90;;;;;;;;;;4963586;28;20207;-69
2022/08/19 02:09:59;;;;;;;8.15;7.32;;;;;;;;;;4965287;28;20297;-69
2022/08/19 02:12:26;;;;;;;10.93;7.95;;;;;;;;;;4963034;28;20203;-69
2022/08/19 02:14:54;;;;;;;7.75;6.95;;;;;;;;;;4966512;28;20225;-69
2022/08/19 02:17:22;;;;;;;8.63;7.25;;;;;;;;;;4967528;28;20223;-69
2022/08/19 02:19:49;;;;;;;12.10;7.40;;;;;;;;;;4964898;28;20666;-69
2022/08/19 02:22:16;;;;;;;8.50;7.03;;;;;;;;;;4965492;28;20217;-69
2022/08/19 02:24:43;;;;;;;7.97;7.18;;;;;;;;;;4965420;28;20649;-69
2022/08/19 02:27:10;;;;;;;8.48;6.93;;;;;;;;;;4967714;28;20222;-69
2022/08/19 02:29:37;;;;;;;7.90;7.03;;;;;;;;;;4968581;28;20261;-69
2022/08/19 02:32:05;;;;;;;8.52;6.63;;;;;;;;;;4965614;28;20214;-69
2022/08/19 02:34:32;;;;;;;9.73;7.07;;;;;;;;;;4964238;28;20917;-70
2022/08/19 02:36:59;;;;;;;12.35;7.70;;;;;;;;;;4970638;28;20288;-69
2022/08/19 02:39:26;;;;;;;9.77;7.05;;;;;;;;;;4971410;28;20210;-69
2022/08/19 02:41:53;;;;;;;8.77;7.45;;;;;;;;;;4971734;28;20211;-69
2022/08/19 02:44:20;;;;;;;10.23;7.63;;;;;;;;;;4971047;28;20214;-69
2022/08/19 02:46:49;;;;;;;8.20;7.38;;;;;;;;;;4971047;28;21069;-69
2022/08/19 02:49:18;;;;;;;7.70;6.95;;;;;;;;;;4971190;28;20214;-70
2022/08/19 02:51:46;;;;;;;11.27;8.23;;;;;;;;;;4971270;28;20202;-69
2022/08/19 02:54:13;;;;;;;9.80;8.30;;;;;;;;;;4971114;28;20210;-69
2022/08/19 02:56:41;;;;;;;9.38;7.95;;;;;;;;;;4969391;28;20234;-68
2022/08/19 02:59:10;;;;;;;9.77;8.15;;;;;;;;;;4969318;28;20257;-69
2022/08/19 03:01:39;;;;;;;9.60;7.82;;;;;;;;;;4970932;28;20210;-69
2022/08/19 03:04:07;;;;;;;10.85;8.10;;;;;;;;;;4971049;28;20622;-69
2022/08/19 03:06:37;;;;;;;10.95;8.90;;;;;;;;;;4970882;28;20215;-69
2022/08/19 03:09:04;;;;;;;10.50;8.18;;;;;;;;;;4970630;28;20277;-69
2022/08/19 03:11:32;;;;;;;11.10;8.73;;;;;;;;;;4970706;28;20210;-69
2022/08/19 03:14:00;;;;;;;10.55;8.35;;;;;;;;;;4970824;28;20285;-69
2022/08/19 03:16:31;;;;;;;10.82;8.23;;;;;;;;;;4970702;28;20233;-68
2022/08/19 03:19:00;;;;;;;11.07;8.55;;;;;;;;;;4969468;28;20719;-69
2022/08/19 03:21:28;;;;;;;10.75;8.25;;;;;;;;;;4970579;28;20697;-69
2022/08/19 03:23:57;;;;;;;10.77;8.52;;;;;;;;;;4970072;28;20202;-69
2022/08/19 03:26:24;;;;;;;12.50;8.85;;;;;;;;;;4969917;28;20297;-69
2022/08/19 03:28:51;;;;;;;10.82;8.35;;;;;;;;;;4970027;28;20269;-69
2022/08/19 03:31:19;;;;;;;9.40;8.38;;;;;;;;;;4969671;28;20206;-69
2022/08/19 03:33:46;;;;;;;8.95;7.28;;;;;;;;;;4969670;28;20210;-69
2022/08/19 03:36:14;;;;;;;9.85;7.60;;;;;;;;;;4969177;28;20711;-69
2022/08/19 03:38:43;;;;;;;9.70;8.70;;;;;;;;;;4970044;28;20210;-69
2022/08/19 03:41:12;;;;;;;11.30;8.63;;;;;;;;;;4966146;28;20615;-69
2022/08/19 03:43:40;;;;;;;8.95;8.05;;;;;;;;;;4969859;28;20629;-69
2022/08/19 03:46:08;;;;;;;8.48;7.68;;;;;;;;;;4969456;28;20209;-69
2022/08/19 03:48:36;;;;;;;10.30;8.23;;;;;;;;;;4969847;28;20264;-70
2022/08/19 03:51:04;;;;;;;11.70;8.68;;;;;;;;;;4969698;28;20664;-70
2022/08/19 03:53:32;;;;;;;9.90;8.27;;;;;;;;;;4968071;28;20272;-69
2022/08/19 03:55:59;;;;;;;8.50;7.43;;;;;;;;;;4968229;28;20230;-70
2022/08/19 03:58:28;;;;;;;9.50;8.30;;;;;;;;;;4965787;28;20265;-69
2022/08/19 04:00:55;;;;;;;8.85;7.80;;;;;;;;;;4967601;28;20198;-69
2022/08/19 04:03:23;;;;;;;8.90;8.00;;;;;;;;;;4969364;28;20633;-69
2022/08/19 04:05:50;;;;;;;9.95;8.20;;;;;;;;;;4966561;28;20195;-68
2022/08/19 04:08:18;;;;;;;10.57;7.85;;;;;;;;;;4968109;28;20206;-69
2022/08/19 04:10:45;;;;;;;9.05;7.88;;;;;;;;;;4969637;28;20352;-69
2022/08/19 04:13:12;;;;;;;11.50;8.85;;;;;;;;;;4968315;28;20210;-69
2022/08/19 04:15:42;;;;;;;8.60;7.75;;;;;;;;;;4968848;28;20233;-69
2022/08/19 04:18:09;;;;;;;8.90;7.35;;;;;;;;;;4967645;28;20229;-69
2022/08/19 04:20:40;;;;;;;8.73;7.15;;;;;;;;;;4964379;28;20732;-69
2022/08/19 04:23:08;;;;;;;9.98;8.63;;;;;;;;;;4969046;28;20211;-69
2022/08/19 04:25:37;;;;;;;8.45;7.60;;;;;;;;;;4968476;28;20217;-69
2022/08/19 04:28:04;;;;;;;8.45;7.60;;;;;;;;;;4969073;28;20301;-69
2022/08/19 04:30:31;;;;;;;8.75;7.85;;;;;;;;;;4968509;28;20214;-69
2022/08/19 04:33:00;;;;;;;8.85;7.95;;;;;;;;;;4968451;28;20210;-69
2022/08/19 04:35:27;;;;;;;9.20;8.25;;;;;;;;;;4965328;28;20657;-69
2022/08/19 04:37:54;;;;;;;9.10;7.70;;;;;;;;;;4967899;28;20199;-69
2022/08/19 04:43:06;;;;;;;8.73;7.47;;;;;;;;;;4967910;28;20217;-69
2022/08/19 04:45:33;;;;;;;9.95;7.18;;;;;;;;;;4968431;28;20292;-68
2022/08/19 04:48:01;;;;;;;10.10;8.30;;;;;;;;;;4968248;28;20491;-70
2022/08/19 04:50:28;;;;;;;15.15;8.25;;;;;;;;;;4968631;28;20207;-69
2022/08/19 04:52:56;;;;;;;8.80;7.90;;;;;;;;;;4967116;28;20209;-69
2022/08/19 04:55:25;;;;;;;9.90;7.45;;;;;;;;;;4968580;28;20297;-69
2022/08/19 04:57:52;;;;;;;8.25;7.22;;;;;;;;;;4968254;28;20245;-69
2022/08/19 05:00:19;;;;;;;10.15;7.82;;;;;;;;;;4964294;28;20257;-69
2022/08/19 05:02:46;;;;;;;8.98;7.40;;;;;;;;;;4964571;28;20206;-69
2022/08/19 05:05:14;;;;;;;9.85;7.32;;;;;;;;;;4965083;28;20198;-69
2022/08/19 05:07:41;;;;;;;9.73;7.28;;;;;;;;;;4967856;28;20561;-69
2022/08/19 05:10:09;;;;;;;8.80;7.40;;;;;;;;;;4967566;28;20211;-69
2022/08/19 05:12:36;;;;;;;9.85;7.78;;;;;;;;;;4967140;28;20214;-68
2022/08/19 05:15:05;;;;;;;10.75;8.00;;;;;;;;;;4967989;28;20211;-68
2022/08/19 05:17:32;;;;;;;8.10;7.28;;;;;;;;;;4968029;28;20230;-68
2022/08/19 05:22:46;;;;;;;8.23;7.43;;;;;;;;;;4967216;28;20828;-69
2022/08/19 05:25:14;;;;;;;9.20;7.70;;;;;;;;;;4970236;28;20214;-69
2022/08/19 05:27:42;;;;;;;9.38;7.95;;;;;;;;;;4970953;28;20207;-69
2022/08/19 05:30:10;;;;;;;9.07;8.15;;;;;;;;;;4971678;28;20206;-69
2022/08/19 05:32:37;;;;;;;8.57;7.63;;;;;;;;;;4971519;28;20269;-69
2022/08/19 05:35:05;;;;;;;9.35;7.55;;;;;;;;;;4972080;28;20210;-69
2022/08/19 05:37:32;;;;;;;9.50;7.20;;;;;;;;;;4972484;28;20230;-68
2022/08/19 05:40:01;;;;;;;11.30;8.15;;;;;;;;;;4972981;28;20217;-69
2022/08/19 05:42:28;;;;;;;9.15;6.93;;;;;;;;;;4972550;28;20221;-69
2022/08/19 05:44:56;;;;;;;10.10;6.70;;;;;;;;;;4971363;28;20211;-69
2022/08/19 05:47:23;;;;;;;10.05;7.10;;;;;;;;;;4971552;28;20210;-69
2022/08/19 05:49:50;;;;;;;8.43;7.53;;;;;;;;;;4972534;28;20277;-69
2022/08/19 05:52:18;;;;;;;9.60;7.30;;;;;;;;;;4964168;28;20203;-69
2022/08/19 05:54:47;;;;;;;7.65;6.95;;;;;;;;;;4972163;28;20272;-67
2022/08/19 05:57:16;;;;;;;9.35;6.90;;;;;;;;;;4971607;28;20245;-68
2022/08/19 05:59:43;;;;;;;7.30;6.68;;;;;;;;;;4972017;28;20234;-67
2022/08/19 06:02:13;;;;;;;7.45;6.75;;;;;;;;;;4970978;28;20292;-67
2022/08/19 06:04:42;;;;;;;8.25;6.90;;;;;;;;;;4970821;28;20309;-68
2022/08/19 06:07:09;;;;;;;9.30;7.15;;;;;;;;;;4970105;28;20202;-66
2022/08/19 06:09:37;;;;;;;7.55;6.75;;;;;;;;;;4970635;28;20579;-67
2022/08/19 06:12:04;;;;;;;7.07;6.47;;;;;;;;;;4958780;28;20456;-67
2022/08/19 06:14:34;;;;;;;9.02;7.35;;;;;;;;;;4972054;28;20748;-67
2022/08/19 06:17:02;;;;;;;12.82;6.75;;;;;;;;;;4969261;28;20248;-67
2022/08/19 06:19:30;;;;;;;6.97;6.28;;;;;;;;;;4969541;28;20230;-67
2022/08/19 06:21:57;;;;;;;7.63;6.30;;;;;;;;;;4970300;28;20211;-65
2022/08/19 06:24:26;;;;;;;7.40;6.70;;;;;;;;;;4970018;28;20673;-66
2022/08/19 06:26:54;;;;;;;7.78;7.05;;;;;;;;;;4972122;28;20207;-67
2022/08/19 06:29:23;;;;;;;7.25;6.65;;;;;;;;;;4969499;28;20217;-67
2022/08/19 06:31:52;;;;;;;6.85;6.18;;;;;;;;;;4969554;28;20207;-67
2022/08/19 06:34:20;;;;;;;7.18;6.47;;;;;;;;;;4971493;28;20230;-67
2022/08/19 06:36:49;;;;;;;8.07;6.47;;;;;;;;;;4969370;28;20242;-67
2022/08/19 06:39:18;;;;;;;7.80;6.13;;;;;;;;;;4969370;28;20298;-67
2022/08/19 06:41:46;;;;;;;7.78;5.82;;;;;;;;;;4971037;28;20218;-66
2022/08/19 06:44:13;;;;;;;6.90;6.25;;;;;;;;;;4970010;28;20206;-67
2022/08/19 06:46:41;;;;;;;6.85;6.22;;;;;;;;;;4969315;28;20203;-67
2022/08/19 06:49:13;;;;;;;5.93;5.43;;;;;;;;;;4966929;28;20207;-67
2022/08/19 06:51:40;;;;;;;6.13;5.55;;;;;;;;;;4968271;28;20222;-66
2022/08/19 06:54:07;;;;;;;6.70;5.28;;;;;;;;;;4969509;28;20965;-67
2022/08/19 06:56:35;;;;;;;6.47;5.78;;;;;;;;;;4968818;28;20258;-67
2022/08/19 06:59:03;;;;;;;5.90;5.43;;;;;;;;;;4969099;28;20207;-67
2022/08/19 07:01:30;;;;;;;6.38;5.45;;;;;;;;;;4969221;28;20218;-67
2022/08/19 07:03:57;;;;;;;5.60;5.05;;;;;;;;;;4963213;28;20214;-68
2022/08/19 07:06:25;;;;;;;6.05;5.55;;;;;;;;;;4967557;28;20206;-68
2022/08/19 07:08:52;;;;;;;6.05;5.55;;;;;;;;;;4967940;28;20214;-67
2022/08/19 07:11:20;;;;;;;5.07;4.65;;;;;;;;;;4969005;28;20445;-66
2022/08/19 07:13:48;;;;;;;5.20;4.80;;;;;;;;;;4969872;28;20213;-68
2022/08/19 07:16:16;;;;;;;5.43;4.97;;;;;;;;;;4964419;28;20296;-68
2022/08/19 07:18:44;;;;;;;5.53;5.00;;;;;;;;;;4964413;28;20238;-68
2022/08/19 07:21:12;;;;;;;4.47;4.18;;;;;;;;;;4966820;28;20221;-67
2022/08/19 07:23:40;;;;;;;4.60;4.30;;;;;;;;;;4967868;28;20316;-67
2022/08/19 07:26:08;;;;;;;4.85;4.40;;;;;;;;;;4968437;28;20658;-67
2022/08/19 07:28:38;;;;;;;4.78;4.47;;;;;;;;;;4968519;28;20685;-67
2022/08/19 07:31:05;;;;;;;5.10;4.53;;;;;;;;;;4968593;28;20221;-66
2022/08/19 07:33:36;;;;;;;5.35;4.65;;;;;;;;;;4968289;28;20654;-66
2022/08/19 07:36:03;;;;;;;5.00;4.60;;;;;;;;;;4969009;28;20213;-65
2022/08/19 07:38:30;;;;;;;5.45;4.43;;;;;;;;;;4967547;28;20226;-65
2022/08/19 07:40:59;;;;;;;4.80;4.50;;;;;;;;;;4968596;28;20206;-76
2022/08/19 07:43:26;;;;;;;7.95;4.60;;;;;;;;;;4968462;28;20644;-68
2022/08/19 07:45:55;;;;;;;5.05;4.65;;;;;;;;;;4967799;28;20681;-68
2022/08/19 07:48:24;;;;;;;5.03;4.53;;;;;;;;;;4966759;28;20207;-68
2022/08/19 07:50:51;;;;;;;5.07;4.68;;;;;;;;;;4968733;28;20609;-67
2022/08/19 07:53:19;;;;;;;5.10;4.63;;;;;;;;;;4968484;28;20281;-68
2022/08/19 07:55:46;;;;;;;5.03;4.68;;;;;;;;;;4967454;28;20424;-68
2022/08/19 07:58:16;;;;;;;4.63;4.32;;;;;;;;;;4969233;28;20257;-67
2022/08/19 08:00:44;;;;;;;4.80;4.40;;;;;;;;;;4968979;28;20217;-67
2022/08/19 08:03:11;;;;;;;4.80;4.40;;;;;;;;;;4968781;28;20219;-67
2022/08/19 08:11:04;;;;;;;4.60;4.30;;;;;;;;;;4944538;28;20668;-65
2022/08/19 08:13:34;;;;;;;5.43;4.95;;;;;;;;;;4968535;28;20210;-69
2022/08/19 08:16:02;;;;;;;4.35;3.95;;;;;;;;;;4967876;28;20229;-69
2022/08/19 08:18:29;;;;;;;4.63;4.22;;;;;;;;;;4964043;28;20308;-69
2022/08/19 08:20:57;;;;;;;4.68;4.05;;;;;;;;;;4967722;28;20230;-68
2022/08/19 08:23:25;;;;;;;3.78;3.58;;;;;;;;;;4965573;28;20211;-68
2022/08/19 08:25:52;;;;;;;4.20;4.00;;;;;;;;;;4967989;28;20202;-68
2022/08/19 08:28:20;;;;;;;5.60;3.88;;;;;;;;;;4967251;28;20684;-68
2022/08/19 08:30:49;;;;;;;4.10;3.80;;;;;;;;;;4967867;28;20206;-70
2022/08/19 08:33:18;;;;;;;8.15;4.60;;;;;;;;;;4966303;28;20302;-70
2022/08/19 08:35:46;;;;;;;4.50;4.20;;;;;;;;;;4967293;28;20298;-68
2022/08/19 08:38:13;;;;;;;4.72;4.18;;;;;;;;;;4967005;28;20361;-68
2022/08/19 08:40:43;;;;;;;5.05;4.40;;;;;;;;;;4969550;28;20218;-68
2022/08/19 08:43:15;;;;;;;4.40;4.10;;;;;;;;;;4967626;28;20210;-68
2022/08/19 08:45:45;;;;;;;4.55;3.88;;;;;;;;;;4967661;28;20627;-69
2022/08/19 08:48:18;;;;;;;4.40;3.75;;;;;;;;;;4963665;28;20210;-69
2022/08/19 08:50:48;;;;;;;4.05;3.70;;;;;;;;;;4967330;28;20210;-68
2022/08/19 08:53:16;;;;;;;4.55;3.63;;;;;;;;;;4967589;28;20217;-69
2022/08/19 08:55:43;;;;;;;4.32;4.03;;;;;;;;;;4966499;28;20269;-68
2022/08/19 08:58:13;;;;;;;5.32;3.80;;;;;;;;;;4967403;28;20229;-68
2022/08/19 09:00:44;;;;;;;3.55;3.35;;;;;;;;;;4971070;28;20212;-67
2022/08/19 09:03:16;;;;;;;5.80;4.07;;;;;;;;;;4971314;28;20672;-68
2022/08/19 09:05:48;;;;;;;4.85;4.43;;;;;;;;;;4971496;28;20759;-67
2022/08/19 09:08:19;;;;;;;4.78;4.43;;;;;;;;;;4972043;28;20199;-70
2022/08/19 09:10:48;;;;;;;4.32;4.03;;;;;;;;;;4971994;28;20315;-69
2022/08/19 09:13:21;;;;;;;4.85;4.45;;;;;;;;;;4971697;28;20203;-69
2022/08/19 09:15:50;;;;;;;4.90;4.50;;;;;;;;;;4971978;28;20265;-69
2022/08/19 09:18:18;;;;;;;5.30;4.90;;;;;;;;;;4971136;28;20230;-69
2022/08/19 09:20:47;;;;;;;5.20;4.90;;;;;;;;;;4971994;28;20241;-68
2022/08/19 09:23:14;;;;;;;4.72;4.32;;;;;;;;;;4967220;28;20697;-63
2022/08/19 09:25:41;;;;;;;5.88;5.38;;;;;;;;;;4969106;28;20268;-67
2022/08/19 09:28:08;;;;;;;5.75;5.45;;;;;;;;;;4970723;28;20673;-67
2022/08/19 09:30:37;;;;;;;6.75;6.18;;;;;;;;;;4971002;28;20206;-67
2022/08/19 09:33:05;;;;;;;11.85;10.25;;;;;;;;;;4970402;28;20207;-68
2022/08/19 09:35:32;;;;;;;14.60;12.43;;;;;;;;;;4970716;28;20213;-68
2022/08/19 09:38:01;;;;;;;8.68;7.63;;;;;;;;;;4970443;28;20230;-69
2022/08/19 09:40:28;;;;;;;7.13;6.50;;;;;;;;;;4970203;28;20249;-69
2022/08/19 09:42:56;;;;;;;7.38;6.78;;;;;;;;;;4970999;28;20202;-69
2022/08/19 09:45:24;;;;;;;7.38;6.65;;;;;;;;;;4970709;28;20217;-69
2022/08/19 09:47:52;;;;;;;7.43;6.72;;;;;;;;;;4970679;28;20262;-70
2022/08/19 09:50:19;;;;;;;6.93;6.35;;;;;;;;;;4970495;28;20293;-67
2022/08/19 09:52:47;;;;;;;6.18;5.78;;;;;;;;;;4970992;28;20265;-68
2022/08/19 09:55:17;;;;;;;6.70;6.20;;;;;;;;;;4970722;28;20214;-68
2022/08/19 09:57:44;;;;;;;7.07;6.47;;;;;;;;;;4970437;28;20226;-68
2022/08/19 10:00:11;;;;;;;8.95;8.20;;;;;;;;;;4970458;28;20211;-68
2022/08/19 10:02:38;;;;;;;7.30;6.65;;;;;;;;;;4971886;28;20206;-68
2022/08/19 10:07:51;;;;;;;6.10;5.70;;;;;;;;;;4970523;28;20197;-69
2022/08/19 10:10:19;;;;;;;7.80;7.00;;;;;;;;;;4969526;28;20253;-69
2022/08/19 10:12:47;;;;;;;8.25;7.47;;;;;;;;;;4971669;28;20288;-68
2022/08/19 10:15:14;;;;;;;8.65;7.82;;;;;;;;;;4972006;28;20281;-68
2022/08/19 10:17:41;;;;;;;8.85;8.15;;;;;;;;;;4971648;28;20226;-71
2022/08/19 10:20:09;;;;;;;9.35;8.45;;;;;;;;;;4971544;28;20244;-69
2022/08/19 10:22:37;;;;;;;9.85;8.95;;;;;;;;;;4971976;28;20736;-68
2022/08/19 10:25:04;;;;;;;9.88;9.05;;;;;;;;;;4971011;28;21046;-70
2022/08/19 10:27:33;;;;;;;8.93;8.13;;;;;;;;;;4971987;28;20218;-69
2022/08/19 10:30:01;;;;;;;9.32;8.52;;;;;;;;;;4971390;28;20702;-69
2022/08/19 10:32:29;;;;;;;9.13;8.35;;;;;;;;;;4971522;28;20210;-69
2022/08/19 10:34:56;;;;;;;9.45;8.65;;;;;;;;;;4969238;28;20210;-69
2022/08/19 10:37:23;;;;;;;9.13;8.20;;;;;;;;;;4970765;28;20218;-69
2022/08/19 10:39:50;;;;;;;8.60;7.80;;;;;;;;;;4971009;28;20238;-69
2022/08/19 10:42:18;;;;;;;9.07;8.27;;;;;;;;;;4971224;28;20214;-70
2022/08/19 10:44:47;;;;;;;8.65;7.85;;;;;;;;;;4970170;28;20553;-69
2022/08/19 10:47:15;;;;;;;7.35;6.75;;;;;;;;;;4970877;28;20216;-70
2022/08/19 10:52:35;;;;;;;6.30;5.82;;;;;;;;;;4968958;28;20202;-69
2022/08/19 10:57:47;;;;;;;6.43;5.97;;;;;;;;;;4971022;28;20368;-69
2022/08/19 11:00:16;;;;;;;7.50;6.72;;;;;;;;;;4970891;28;20225;-69
2022/08/19 11:02:43;;;;;;;7.07;6.43;;;;;;;;;;4970558;28;20747;-69
2022/08/19 11:05:11;;;;;;;7.95;7.25;;;;;;;;;;4970122;28;20677;-69
2022/08/19 11:07:38;;;;;;;7.65;6.75;;;;;;;;;;4970765;28;20264;-70
2022/08/19 11:10:06;;;;;;;6.70;6.20;;;;;;;;;;4970067;28;20269;-69
2022/08/19 11:12:33;;;;;;;6.05;5.65;;;;;;;;;;4969954;28;20242;-69
2022/08/19 11:15:00;;;;;;;7.28;6.68;;;;;;;;;;4970220;28;20206;-70
2022/08/19 11:17:31;;;;;;;5.80;5.30;;;;;;;;;;4970513;28;20230;-68
2022/08/19 11:20:01;;;;;;;6.90;6.35;;;;;;;;;;4970443;28;20234;-70
2022/08/19 11:22:28;;;;;;;6.63;6.13;;;;;;;;;;4970023;28;20218;-71
2022/08/19 11:24:55;;;;;;;6.10;5.60;;;;;;;;;;4968085;28;20642;-71
2022/08/19 11:27:22;;;;;;;6.15;5.75;;;;;;;;;;4968339;28;20767;-68
2022/08/19 11:29:49;;;;;;;6.28;5.78;;;;;;;;;;4970680;28;20238;-75
2022/08/19 11:32:16;;;;;;;6.88;6.38;;;;;;;;;;4968708;28;20206;-76
2022/08/19 11:34:44;;;;;;;6.75;6.20;;;;;;;;;;4958780;28;20207;-68
2022/08/19 11:37:11;;;;;;;6.18;5.70;;;;;;;;;;4970166;28;20215;-68
2022/08/19 11:39:39;;;;;;;6.43;5.95;;;;;;;;;;4969974;28;20233;-69
2022/08/19 11:42:54;;;;;;;6.07;5.60;;;;;;;;;;4970260;28;20273;-69
2022/08/19 11:44:54;;;;;;;5.57;5.22;;;;;;;;;;4969983;28;20818;-69
2022/08/19 11:47:21;;;;;;;4.80;4.40;;;;;;;;;;4969134;28;20270;-68
2022/08/19 11:49:50;;;;;;;7.53;6.13;;;;;;;;;;4970176;28;20210;-68
2022/08/19 11:52:18;;;;;;;5.78;5.25;;;;;;;;;;4969687;28;20210;-69
2022/08/19 11:54:45;;;;;;;5.88;5.47;;;;;;;;;;4969778;28;20260;-69
2022/08/19 11:57:12;;;;;;;5.68;5.28;;;;;;;;;;4969546;28;20933;-68
2022/08/19 11:59:39;;;;;;;4.47;4.18;;;;;;;;;;4969652;28;20230;-69
2022/08/19 12:02:06;;;;;;;4.05;3.75;;;;;;;;;;4969559;28;20206;-68
2022/08/19 12:04:33;;;;;;;3.60;3.50;;;;;;;;;;4969866;28;20740;-68
2022/08/19 12:07:01;;;;;;;4.03;3.72;;;;;;;;;;4969440;28;20269;-68
2022/08/19 12:09:28;;;;;;;4.13;4.03;;;;;;;;;;4968820;28;20288;-69
2022/08/19 12:11:56;;;;;;;4.00;3.80;;;;;;;;;;4969732;28;20222;-68
2022/08/19 12:14:23;;;;;;;4.10;4.00;;;;;;;;;;4969002;28;20586;-69
2022/08/19 12:16:50;;;;;;;3.95;3.83;;;;;;;;;;4969443;28;20261;-69
2022/08/19 12:19:17;;;;;;;4.18;3.97;;;;;;;;;;4969409;28;20233;-68
2022/08/19 12:21:44;;;;;;;3.60;3.50;;;;;;;;;;4969198;28;20265;-69
2022/08/19 12:24:13;;;;;;;3.20;3.10;;;;;;;;;;4969067;28;20665;-68
2022/08/19 12:26:40;;;;;;;3.80;3.70;;;;;;;;;;4969576;28;20221;-69
2022/08/19 12:29:08;;;;;;;3.58;3.45;;;;;;;;;;4969879;28;20210;-69
2022/08/19 12:31:35;;;;;;;4.18;3.97;;;;;;;;;;4968990;28;20210;-69
2022/08/19 12:34:02;;;;;;;3.88;3.67;;;;;;;;;;4968068;28;20612;-68
2022/08/19 12:36:29;;;;;;;4.82;3.90;;;;;;;;;;4969015;28;20206;-69
2022/08/19 12:38:56;;;;;;;3.80;3.50;;;;;;;;;;4967644;28;20226;-68
2022/08/19 12:41:25;;;;;;;4.22;3.97;;;;;;;;;;4972287;28;20213;-66
2022/08/19 12:43:52;;;;;;;3.88;3.67;;;;;;;;;;4968951;28;20216;-67
2022/08/19 12:46:20;;;;;;;3.53;3.33;;;;;;;;;;4974743;28;20202;-66
2022/08/19 12:48:47;;;;;;;3.63;3.42;;;;;;;;;;4975263;28;20205;-68
2022/08/19 12:51:15;;;;;;;3.35;3.25;;;;;;;;;;4969519;28;20210;-68
2022/08/19 12:53:43;;;;;;;3.35;3.25;;;;;;;;;;4974266;28;20210;-67
2022/08/19 12:56:11;;;;;;;3.58;3.40;;;;;;;;;;4967373;28;20214;-71
2022/08/19 12:58:41;;;;;;;4.18;3.25;;;;;;;;;;4969399;28;20265;-65
2022/08/19 13:01:08;;;;;;;2.92;2.90;;;;;;;;;;4965768;28;20210;-67
2022/08/19 13:03:36;;;;;;;3.08;2.97;;;;;;;;;;4966457;28;20265;-66
2022/08/19 13:06:03;;;;;;;2.83;2.72;;;;;;;;;;4970035;28;20245;-66
2022/08/19 13:08:30;;;;;;;2.63;2.63;;;;;;;;;;4969098;28;20218;-66
2022/08/19 13:10:58;;;;;;;2.28;2.15;;;;;;;;;;4969111;28;20264;-66
2022/08/19 13:13:26;;;;;;;3.03;2.92;;;;;;;;;;4988554;28;20306;-66
2022/08/19 13:16:02;;;;;;;2.65;2.65;;;;;;;;;;4975030;28;20270;-67
2022/08/19 13:18:29;;;;;;;2.70;2.70;;;;;;;;;;4961081;28;20269;-66
2022/08/19 13:20:57;;;;;;;2.72;2.53;;;;;;;;;;4968870;28;20238;-66
2022/08/19 13:23:24;;;;;;;2.63;2.58;;;;;;;;;;4969090;28;20571;-66
2022/08/19 13:25:57;;;;;;;2.75;2.65;;;;;;;;;;4969223;28;20214;-65
2022/08/19 13:28:24;;;;;;;2.50;2.40;;;;;;;;;;4980322;28;20208;-66
2022/08/19 13:33:37;;;;;;;2.00;2.00;;;;;;;;;;4969053;28;20209;-66
2022/08/19 13:36:07;;;;;;;2.13;2.03;;;;;;;;;;4969076;28;20214;-67
2022/08/19 13:38:35;;;;;;;2.40;2.30;;;;;;;;;;4968715;28;20301;-67
2022/08/19 13:41:06;;;;;;;2.15;2.15;;;;;;;;;;4969009;28;20207;-66
2022/08/19 13:43:33;;;;;;;2.58;2.47;;;;;;;;;;4968441;28;20727;-67
2022/08/19 13:46:00;;;;;;;2.70;2.60;;;;;;;;;;4969316;28;20213;-67
2022/08/19 13:48:27;;;;;;;2.55;2.47;;;;;;;;;;4971513;28;20282;-68
2022/08/19 13:50:56;;;;;;;2.90;2.90;;;;;;;;;;4971642;28;20215;-67
2022/08/19 13:53:23;;;;;;;2.33;2.33;;;;;;;;;;4970392;28;20210;-67
2022/08/19 13:55:50;;;;;;;2.33;2.30;;;;;;;;;;4971195;28;20696;-68
2022/08/19 13:58:17;;;;;;;2.63;2.42;;;;;;;;;;4971634;28;20650;-65
2022/08/19 14:00:46;;;;;;;2.58;2.47;;;;;;;;;;4971508;28;20230;-66
2022/08/19 14:03:13;;;;;;;2.67;2.67;;;;;;;;;;4975257;28;20268;-67
2022/08/19 14:05:40;;;;;;;2.60;2.60;;;;;;;;;;4972105;28;20202;-67
2022/08/19 14:08:09;;;;;;;3.35;3.25;;;;;;;;;;4970738;28;20217;-67
2022/08/19 14:10:36;;;;;;;2.97;2.90;;;;;;;;;;4970679;28;20946;-67
2022/08/19 14:13:04;;;;;;;2.90;2.80;;;;;;;;;;4970595;28;20722;-64
2022/08/19 14:15:31;;;;;;;2.80;2.70;;;;;;;;;;4970240;28;21155;-66
2022/08/19 14:17:58;;;;;;;2.75;2.72;;;;;;;;;;4969763;28;20295;-66
2022/08/19 14:20:25;;;;;;;2.63;2.60;;;;;;;;;;4970677;28;20234;-66
2022/08/19 14:22:52;;;;;;;4.63;3.33;;;;;;;;;;4968933;28;20956;-67
2022/08/19 14:25:22;;;;;;;3.53;3.35;;;;;;;;;;4971859;28;20641;-67
2022/08/19 14:27:49;;;;;;;4.07;3.88;;;;;;;;;;4971492;28;20923;-67
2022/08/19 14:30:18;;;;;;;3.83;3.70;;;;;;;;;;4972194;28;20258;-67
2022/08/19 14:32:46;;;;;;;4.28;3.88;;;;;;;;;;4971494;28;20206;-67
2022/08/19 14:35:14;;;;;;;4.00;3.70;;;;;;;;;;4972141;28;20607;-67
2022/08/19 14:37:41;;;;;;;3.67;3.47;;;;;;;;;;4971652;28;20238;-65
2022/08/19 14:40:08;;;;;;;3.88;3.50;;;;;;;;;;4971501;28;20316;-65
2022/08/19 14:42:37;;;;;;;3.60;3.50;;;;;;;;;;4970757;28;20214;-66
2022/08/19 14:45:05;;;;;;;4.00;3.90;;;;;;;;;;4971231;28;20217;-66
2022/08/19 14:47:33;;;;;;;4.78;4.53;;;;;;;;;;4970773;28;20318;-66
2022/08/19 14:50:00;;;;;;;4.25;4.00;;;;;;;;;;4971457;28;20206;-65
2022/08/19 14:52:27;;;;;;;4.43;4.22;;;;;;;;;;4970895;28;20210;-65
2022/08/19 14:54:54;;;;;;;4.20;4.00;;;;;;;;;;4970554;28;20211;-68
2022/08/19 14:57:21;;;;;;;4.05;3.85;;;;;;;;;;4969205;28;20218;-66
2022/08/19 14:59:50;;;;;;;4.40;3.90;;;;;;;;;;4970785;28;20245;-63
2022/08/19 15:02:17;;;;;;;3.38;3.28;;;;;;;;;;4970800;28;20219;-63
2022/08/19 15:04:44;;;;;;;3.30;3.20;;;;;;;;;;4969072;28;20206;-63
2022/08/19 15:07:11;;;;;;;3.80;3.70;;;;;;;;;;4967603;28;20745;-65